Flight Track Log - Related Links

Times and Time Zones

All times are in EDT time to prevent confusion due to time zone crossing. See the AWI3943 flight status page for this flight to view local times or setup timezone preferences in your user account.

Time Position Orientation Groundspeed Altitude Reporting Facility
EDT Latitude Longitude Course Direction KTS MPH feet Rate Location/Type
Sun 11:15:28 AM 35.1928 -80.9356 315° West 159 183 1,600  Level Atlanta Center
Sun 11:16:28 AM 35.1431 -80.9475 191° South 212 244 3,700 2,182 Climbing Atlanta Center
Sun 11:17:29 AM 35.1369 -81.0317 265° West 277 319 6,000 2,118 Climbing Atlanta Center
Sun 11:17:53 AM 35.1583 -81.0589 314° West 285 328 6,700 2,951 Climbing Atlanta Center
Sun 11:18:00 AM 35.4627 -81.2557 315° West  Level Estimated
Sun 11:18:30 AM 35.2083 -81.0544 North 295 339 9,000  Level Atlanta Center
Sun 11:18:53 AM 35.2331 -81.0433 20° North 310 357 9,600 1,735 Climbing Atlanta Center
Sun 11:19:00 AM 35.5454 -81.3584 315° West  Level Estimated
Sun 11:19:53 AM 35.3119 -81.0228 12° North 296 341 11,400  Level Atlanta Center
Sun 11:20:00 AM 35.6282 -81.4612 315° West  Level Estimated
Sun 11:20:53 AM 35.4008 -80.9914 16° North 316 364 13,300  Level Atlanta Center
Sun 11:21:53 AM 35.5083 -80.9542 16° North 343 395 15,500 1,950 Climbing Atlanta Center
Sun 11:22:53 AM 35.6078 -80.9225 15° North 355 409 17,200 1,450 Climbing Atlanta Center
Sun 11:23:53 AM 35.7092 -80.8931 13° North 365 420 18,400 1,300 Climbing Atlanta Center
Sun 11:24:53 AM 35.8044 -80.9406 338° Northwest 349 402 19,800 1,300 Climbing Atlanta Center
Sun 11:25:53 AM 35.8936 -81.0039 330° Northwest 355 409 21,000 1,100 Climbing Atlanta Center
Sun 11:26:53 AM 35.9828 -81.0672 330° Northwest 360 414 22,000 500 Climbing Atlanta Center
Sun 11:27:53 AM 36.0392 -81.1653 305° West 354 407 22,000 350 Level Atlanta Center
Sun 11:28:53 AM 36.0956 -81.2608 306° West 347 399 22,700 550 Climbing Atlanta Center
Sun 11:29:53 AM 36.1519 -81.3592 305° West 347 399 23,100 650 Climbing Atlanta Center
Sun 11:30:53 AM 36.2125 -81.4472 310° West 347 399 24,000 450 Climbing Atlanta Center
Sun 11:31:53 AM 36.2644 -81.5436 304° West 347 399 24,000  Level Atlanta Center
Sun 11:32:53 AM 36.3203 -81.6319 308° West 347 399 24,000  Level Atlanta Center
Sun 11:33:53 AM 36.3764 -81.7283 306° West 340 391 24,000  Level Atlanta Center
Sun 11:34:53 AM 36.4344 -81.8194 308° West 340 391 24,000  Level Atlanta Center
Sun 11:35:53 AM 36.5108 -81.8947 322° Northwest 345 397 24,000  Level Atlanta Center
Sun 11:36:53 AM 36.5872 -81.9628 324° Northwest 342 394 24,000  Level Atlanta Center
Sun 11:38:13 AM 36.6722 -82.0719 314° West 348 400 24,000  Level Indianapolis Center
Sun 11:39:15 AM 36.7275 -82.1725 304° West 351 404 24,000  Level Indianapolis Center
Sun 11:40:16 AM 36.7833 -82.2736 305° West 351 404 24,000  Level Indianapolis Center
Sun 11:41:18 AM 36.8397 -82.3753 305° West 352 405 24,000  Level Indianapolis Center
Sun 11:42:19 AM 36.9047 -82.4931 305° West 353 406 24,000  Level Indianapolis Center
Sun 11:43:21 AM 36.9603 -82.5928 305° West 353 406 24,000 -387 Level Indianapolis Center
Sun 11:44:23 AM 37.0156 -82.6933 305° West 353 406 23,200 -1,113 Descending Indianapolis Center
Sun 11:45:25 AM 37.0711 -82.7947 304° West 354 407 21,700 -1,548 Descending Indianapolis Center
Sun 11:46:27 AM 37.1372 -82.9150 305° West 359 413 20,000 -1,561 Descending Indianapolis Center
Sun 11:47:28 AM 37.1919 -83.0158 304° West 357 411 18,500 -1,366 Descending Indianapolis Center
Sun 11:48:30 AM 37.2428 -83.1108 304° West 338 389 17,200 -732 Descending Indianapolis Center
Sun 11:49:31 AM 37.2928 -83.2036 304° West 326 375 17,000 -98 Descending Indianapolis Center
Sun 11:50:33 AM 37.3439 -83.2981 304° West 325 374 17,000  Level Indianapolis Center
Sun 11:51:35 AM 37.3956 -83.3939 304° West 325 374 17,000  Level Indianapolis Center
Sun 11:52:36 AM 37.4475 -83.4906 304° West 330 380 17,000  Level Indianapolis Center
Sun 11:53:38 AM 37.5069 -83.6025 304° West 330 380 17,000 48 Level Indianapolis Center
Sun 11:54:40 AM 37.5589 -83.6989 304° West 330 380 17,100 -439 Climbing Indianapolis Center
Sun 11:55:41 AM 37.6094 -83.7956 303° West 330 380 16,100 -1,366 Descending Indianapolis Center
Sun 11:56:43 AM 37.6606 -83.8908 304° West 330 380 14,300 -1,742 Descending Indianapolis Center
Sun 11:57:45 AM 37.7089 -83.9842 303° West 322 371 12,500 -1,561 Descending Indianapolis Center
Sun 11:58:46 AM 37.7578 -84.0764 304° West 321 369 11,100 -1,366 Descending Indianapolis Center
Sun 11:59:48 AM 37.7981 -84.1683 299° West 302 348 9,700 -1,854 Descending Indianapolis Center
Sun 12:00:49 PM 37.8375 -84.2714 296° West 284 327 7,300 -2,195 Descending Indianapolis Center
Sun 12:01:51 PM 37.8714 -84.3586 296° West 281 323 5,200 -1,887 Descending Indianapolis Center
Sun 12:02:53 PM 37.9044 -84.4431 296° West 274 315 3,400 -1,073 Descending Indianapolis Center
Sun 12:03:54 PM 37.9356 -84.5289 295° West 272 313 3,000 -390 Descending Indianapolis Center
Sun 12:04:56 PM 37.9675 -84.6028 299° West 253 291 2,600 -242 Descending Indianapolis Center
Sun 12:05:58 PM 38.0058 -84.6672 307° West 235 270 2,500 -97 Descending Indianapolis Center

Login

Don't have an account? Register now (free) for customized features, flight alerts, and more!